Time;durP1;ratioP1;P1;durP2;ratioP2;P2;SDS_P1;SDS_P2;PMS_P1;PMS_P2;Temp;Humidity;BMP_temperature;BMP_pressure;BME280_temperature;BME280_humidity;BME280_pressure;Samples;Min_cycle;Max_cycle;Signal;HPM_P1;HPM_P2
2024/01/05 00:02:23;;;;;;;21.08;5.15;;;;;;;6.57;100.00;99612.56;5032329;28;20041;-82
2024/01/05 00:04:49;;;;;;;15.07;4.13;;;;;;;6.53;100.00;99605.03;5013414;28;20030;-82
2024/01/05 00:07:15;;;;;;;12.93;4.43;;;;;;;6.51;100.00;99606.28;5032126;28;20445;-81
2024/01/05 00:09:40;;;;;;;14.48;5.05;;;;;;;6.51;100.00;99591.16;5032097;28;20061;-82
2024/01/05 00:12:06;;;;;;;17.58;4.78;;;;;;;6.51;100.00;99583.19;5032082;28;20021;-81
2024/01/05 00:14:31;;;;;;;17.27;5.25;;;;;;;6.44;100.00;99581.66;5031972;28;20474;-82
2024/01/05 00:16:59;;;;;;;17.50;5.57;;;;;;;6.61;100.00;99595.16;5014267;28;20050;-80
2024/01/05 00:19:25;;;;;;;14.07;4.47;;;;;;;6.57;100.00;99581.50;5014124;28;20405;-80
2024/01/05 00:21:51;;;;;;;16.98;4.95;;;;;;;6.63;100.00;99590.44;5031907;28;20022;-81
2024/01/05 00:24:16;;;;;;;18.67;4.57;;;;;;;6.68;100.00;99593.28;5014157;28;20025;-81
2024/01/05 00:26:42;;;;;;;17.60;4.78;;;;;;;6.69;100.00;99589.59;5014013;28;20421;-80
2024/01/05 00:29:07;;;;;;;20.38;5.38;;;;;;;6.76;100.00;99595.63;5013941;28;20037;-81
2024/01/05 00:31:32;;;;;;;15.38;4.10;;;;;;;6.74;100.00;99582.56;5013966;28;20029;-80
2024/01/05 00:33:58;;;;;;;21.15;5.65;;;;;;;6.70;100.00;99577.94;5013945;28;20057;-81
2024/01/05 00:36:23;;;;;;;14.35;4.05;;;;;;;6.79;100.00;99573.94;5031479;28;20053;-80
2024/01/05 00:38:49;;;;;;;16.45;4.85;;;;;;;6.81;100.00;99575.34;5013864;28;20451;-80
2024/01/05 00:41:14;;;;;;;16.30;5.53;;;;;;;6.79;100.00;99571.28;5013798;28;20029;-82
2024/01/05 00:43:40;;;;;;;14.40;4.65;;;;;;;6.79;100.00;99571.28;5013758;28;20029;-81
2024/01/05 00:46:05;;;;;;;15.45;4.78;;;;;;;6.77;100.00;99565.38;5031723;28;20029;-81
2024/01/05 00:48:31;;;;;;;23.30;4.93;;;;;;;6.87;100.00;99563.00;5013266;28;20111;-78
2024/01/05 00:50:56;;;;;;;14.15;4.30;;;;;;;6.84;100.00;99560.81;5031421;28;20025;-80
2024/01/05 00:53:21;;;;;;;19.05;4.38;;;;;;;6.86;100.00;99550.75;5031414;28;20057;-80
2024/01/05 00:55:47;;;;;;;18.75;5.18;;;;;;;6.85;100.00;99551.81;5013608;28;20063;-81
2024/01/05 00:58:12;;;;;;;17.58;5.15;;;;;;;6.88;100.00;99551.34;5031222;28;20117;-80
2024/01/05 01:00:37;;;;;;;10.55;3.58;;;;;;;6.89;100.00;99552.97;5013723;28;20030;-81
2024/01/05 01:03:03;;;;;;;17.77;4.72;;;;;;;6.85;100.00;99557.13;5031346;28;20025;-80
2024/01/05 01:05:29;;;;;;;14.10;4.32;;;;;;;6.85;100.00;99541.16;5013596;28;20033;-80
2024/01/05 01:07:54;;;;;;;21.30;5.45;;;;;;;6.93;100.00;99540.06;5013543;28;20371;-80
2024/01/05 01:10:19;;;;;;;16.05;4.70;;;;;;;6.91;100.00;99536.81;5031144;28;20096;-80
2024/01/05 01:12:44;;;;;;;17.27;5.05;;;;;;;6.87;100.00;99527.66;5013410;28;20044;-80
2024/01/05 01:15:10;;;;;;;18.10;5.80;;;;;;;6.89;100.00;99537.03;5031097;28;20064;-81
2024/01/05 01:17:35;;;;;;;19.15;4.25;;;;;;;6.92;100.00;99535.78;5016831;28;20061;-81
2024/01/05 01:20:01;;;;;;;14.88;3.95;;;;;;;6.93;100.00;99527.59;5034429;28;20034;-81
2024/01/05 01:22:26;;;;;;;13.15;4.10;;;;;;;6.93;100.00;99532.91;5034475;28;20076;-81
2024/01/05 01:24:52;;;;;;;17.63;4.30;;;;;;;6.83;100.00;99512.16;5016618;28;20045;-81
2024/01/05 01:27:17;;;;;;;13.98;3.47;;;;;;;6.93;100.00;99530.25;5016523;28;20492;-81
2024/01/05 01:29:43;;;;;;;13.43;3.92;;;;;;;6.95;100.00;99520.22;5016797;28;20025;-80
2024/01/05 01:32:11;;;;;;;14.35;3.67;;;;;;;6.88;100.00;99511.50;5034398;28;20041;-80
2024/01/05 01:34:38;;;;;;;15.10;4.60;;;;;;;6.94;100.00;99518.59;5034518;28;20030;-82
2024/01/05 01:37:04;;;;;;;11.57;4.15;;;;;;;6.93;100.00;99508.97;5034209;28;20426;-81
2024/01/05 01:39:30;;;;;;;17.75;4.45;;;;;;;6.93;100.00;99502.84;5016600;28;20036;-82
2024/01/05 01:41:56;;;;;;;19.45;4.97;;;;;;;6.94;100.00;99507.13;5016643;28;20030;-81
2024/01/05 01:44:22;;;;;;;14.43;3.80;;;;;;;6.95;100.00;99500.81;5034209;28;20034;-82
2024/01/05 01:46:48;;;;;;;21.10;4.93;;;;;;;6.94;100.00;99500.00;5016415;28;20033;-82
2024/01/05 01:49:13;;;;;;;22.27;4.78;;;;;;;6.94;100.00;99492.03;5034238;28;20088;-81
2024/01/05 01:51:40;;;;;;;13.90;4.40;;;;;;;6.94;100.00;99497.34;5016271;28;20105;-82
2024/01/05 01:54:06;;;;;;;14.73;4.43;;;;;;;6.96;100.00;99491.81;5034197;28;20021;-80
2024/01/05 01:56:34;;;;;;;14.00;3.70;;;;;;;6.92;100.00;99482.63;5034297;28;20049;-80
2024/01/05 01:58:59;;;;;;;13.55;4.65;;;;;;;6.87;100.00;99471.88;5016231;28;20045;-80
2024/01/05 02:01:25;;;;;;;15.75;4.30;;;;;;;6.93;100.00;99481.59;5034070;28;20534;-80
2024/01/05 02:03:50;;;;;;;11.60;3.22;;;;;;;7.00;100.00;99477.84;5016234;28;20037;-80
2024/01/05 02:06:16;;;;;;;7.95;3.13;;;;;;;6.90;100.00;99453.63;5016156;28;20031;-80
2024/01/05 02:08:43;;;;;;;13.27;3.55;;;;;;;6.94;100.00;99475.25;5034022;28;20064;-82
2024/01/05 02:11:08;;;;;;;12.98;3.55;;;;;;;6.92;100.00;99466.69;5034032;28;20386;-82
2024/01/05 02:13:34;;;;;;;22.50;4.40;;;;;;;6.75;100.00;99434.63;5015981;28;20026;-82
2024/01/05 02:15:59;;;;;;;7.55;3.05;;;;;;;6.82;100.00;99443.31;5033927;28;20032;-82
2024/01/05 02:18:25;;;;;;;12.05;3.03;;;;;;;6.76;100.00;99425.63;5033671;28;20100;-81
2024/01/05 02:20:50;;;;;;;10.48;3.42;;;;;;;6.73;100.00;99434.03;5033603;28;20121;-82
2024/01/05 02:23:25;;;;;;;10.48;3.17;;;;;;;6.78;100.00;99431.53;5015913;28;20088;-81
2024/01/05 02:25:51;;;;;;;11.43;3.38;;;;;;;6.66;100.00;99435.97;5016004;28;20119;-82
2024/01/05 02:28:18;;;;;;;6.65;2.30;;;;;;;6.67;100.00;99437.59;5015164;28;20030;-80
2024/01/05 02:30:44;;;;;;;10.43;3.20;;;;;;;6.63;100.00;99425.78;5016067;28;20084;-80
2024/01/05 02:33:09;;;;;;;15.43;4.18;;;;;;;6.60;100.00;99431.53;5015856;28;20025;-80
2024/01/05 02:35:34;;;;;;;10.98;3.30;;;;;;;6.56;100.00;99420.56;5033510;28;20389;-80
2024/01/05 02:38:01;;;;;;;10.65;3.20;;;;;;;6.60;100.00;99432.34;5033311;28;20040;-80
2024/01/05 02:40:26;;;;;;;10.82;3.53;;;;;;;6.65;100.00;99413.09;5033390;28;20536;-80
2024/01/05 02:42:51;;;;;;;7.57;2.92;;;;;;;6.66;100.00;99420.84;5033700;28;20061;-80
2024/01/05 02:45:20;;;;;;;6.40;2.60;;;;;;;6.75;100.00;99400.09;5033303;28;20033;-80
2024/01/05 02:47:48;;;;;;;12.80;4.53;;;;;;;6.64;100.00;99406.97;5033297;28;20064;-80
2024/01/05 02:50:14;;;;;;;9.15;3.35;;;;;;;6.62;100.00;99410.88;5033245;28;20025;-80
2024/01/05 02:52:39;;;;;;;13.75;3.47;;;;;;;6.62;100.00;99394.94;5015384;28;20099;-80
2024/01/05 02:55:05;;;;;;;9.75;3.80;;;;;;;6.74;100.00;99407.25;5015495;28;20060;-81
2024/01/05 02:57:30;;;;;;;9.38;3.50;;;;;;;6.75;100.00;99400.09;5015423;28;20033;-81
2024/01/05 02:59:55;;;;;;;10.55;4.47;;;;;;;6.69;100.00;99393.03;5015437;28;20500;-80
2024/01/05 03:02:21;;;;;;;7.28;2.95;;;;;;;6.68;100.00;99386.09;5033096;28;20036;-81
2024/01/05 03:04:46;;;;;;;9.98;3.25;;;;;;;6.63;100.00;99383.28;5015165;28;20091;-80
2024/01/05 03:07:12;;;;;;;5.85;2.72;;;;;;;6.65;100.00;99389.19;5033040;28;20112;-81
2024/01/05 03:09:37;;;;;;;14.43;3.97;;;;;;;6.67;100.00;99387.13;5015210;28;20084;-81
2024/01/05 03:12:02;;;;;;;6.88;3.42;;;;;;;6.67;100.00;99389.78;5032965;28;20037;-82
2024/01/05 03:14:28;;;;;;;9.23;2.90;;;;;;;6.62;100.00;99374.50;5032828;28;20044;-79
2024/01/05 03:16:53;;;;;;;13.57;2.97;;;;;;;6.64;100.00;99374.28;5015038;28;20410;-80
2024/01/05 03:19:18;;;;;;;7.57;3.45;;;;;;;6.70;100.00;99371.56;5032802;28;20289;-81
2024/01/05 03:21:44;;;;;;;13.25;2.90;;;;;;;6.61;100.00;99370.22;5032879;28;20057;-81
2024/01/05 03:24:10;;;;;;;10.13;3.10;;;;;;;6.69;100.00;99369.94;5032724;28;20033;-81
2024/01/05 03:26:35;;;;;;;6.38;2.67;;;;;;;6.64;100.00;99355.69;5032556;28;20036;-80
2024/01/05 03:29:01;;;;;;;10.15;3.00;;;;;;;6.58;100.00;99353.94;5032557;28;20033;-80
2024/01/05 03:31:26;;;;;;;12.02;3.67;;;;;;;6.55;100.00;99344.59;5032691;28;20037;-81
2024/01/05 03:33:51;;;;;;;7.40;3.20;;;;;;;6.62;100.00;99357.75;5032636;28;20032;-81
2024/01/05 03:36:17;;;;;;;6.55;3.15;;;;;;;6.63;100.00;99354.06;5015032;28;20481;-83
2024/01/05 03:38:42;;;;;;;9.98;2.92;;;;;;;6.58;100.00;99343.31;5014131;28;20053;-82
2024/01/05 03:41:07;;;;;;;10.38;2.80;;;;;;;6.67;100.00;99347.31;5031872;28;20065;-81
2024/01/05 03:43:33;;;;;;;9.77;2.90;;;;;;;6.70;100.00;99346.84;5032366;28;20156;-80
2024/01/05 03:45:58;;;;;;;7.78;2.70;;;;;;;6.72;100.00;99352.75;5032381;28;20108;-80
2024/01/05 03:48:23;;;;;;;10.30;2.95;;;;;;;6.68;100.00;99328.47;5014634;28;20044;-81
2024/01/05 03:50:50;;;;;;;5.40;2.50;;;;;;;6.73;100.00;99327.81;5032333;28;20034;-80
2024/01/05 03:53:15;;;;;;;4.18;2.75;;;;;;;6.76;100.00;99336.13;5032183;28;20030;-80
2024/01/05 03:55:41;;;;;;;7.75;2.47;;;;;;;6.78;100.00;99330.59;5014577;28;20051;-80
2024/01/05 03:58:06;;;;;;;11.48;2.80;;;;;;;6.75;100.00;99317.75;5032255;28;20453;-81
2024/01/05 04:00:33;;;;;;;12.90;3.70;;;;;;;6.78;100.00;99322.63;5032284;28;20453;-81
2024/01/05 04:02:58;;;;;;;6.22;2.42;;;;;;;6.89;100.00;99331.66;5032146;28;20032;-80
2024/01/05 04:05:23;;;;;;;3.53;2.38;;;;;;;6.82;100.00;99324.59;5032044;28;20108;-81
2024/01/05 04:07:49;;;;;;;8.20;2.60;;;;;;;6.80;100.00;99315.22;5032087;28;20429;-81
2024/01/05 04:10:14;;;;;;;6.82;2.50;;;;;;;6.74;100.00;99308.97;5014339;28;20256;-80
2024/01/05 04:12:39;;;;;;;5.25;2.55;;;;;;;6.75;100.00;99307.13;5032108;28;20021;-80
2024/01/05 04:15:05;;;;;;;7.07;3.15;;;;;;;6.78;100.00;99298.72;5014171;28;20037;-80
2024/01/05 04:17:31;;;;;;;6.88;2.53;;;;;;;6.77;100.00;99302.41;5031941;28;20382;-79
2024/01/05 04:19:56;;;;;;;8.43;2.80;;;;;;;6.74;100.00;99297.53;5031809;28;20120;-80
2024/01/05 04:22:21;;;;;;;4.13;2.22;;;;;;;6.76;100.00;99293.63;5031822;28;20112;-80
2024/01/05 04:24:47;;;;;;;5.65;2.47;;;;;;;6.79;100.00;99284.38;5031900;28;20405;-80
2024/01/05 04:27:12;;;;;;;7.00;2.17;;;;;;;6.72;100.00;99283.69;5013897;28;20045;-80
2024/01/05 04:29:38;;;;;;;6.38;2.40;;;;;;;6.68;100.00;99275.38;5031704;28;20491;-80
2024/01/05 04:32:04;;;;;;;6.63;2.10;;;;;;;6.76;100.00;99282.19;5031556;28;20026;-80
2024/01/05 04:34:29;;;;;;;6.75;2.20;;;;;;;6.66;100.00;99272.13;5031597;28;20044;-80
2024/01/05 04:36:55;;;;;;;5.93;2.40;;;;;;;6.77;100.00;99279.31;5031530;28;20030;-79
2024/01/05 04:39:20;;;;;;;6.53;2.20;;;;;;;6.75;100.00;99272.59;5013903;28;20033;-79
2024/01/05 04:41:45;;;;;;;6.43;2.83;;;;;;;6.73;100.00;99259.56;5031587;28;20078;-79
2024/01/05 04:44:11;;;;;;;8.27;2.47;;;;;;;6.80;100.00;99270.06;5031476;28;20025;-78
2024/01/05 04:46:36;;;;;;;6.45;2.33;;;;;;;6.77;100.00;99252.75;5031472;28;20029;-79
2024/01/05 04:49:01;;;;;;;6.03;2.42;;;;;;;6.79;100.00;99249.84;5031490;28;20061;-79
2024/01/05 04:51:27;;;;;;;5.15;2.70;;;;;;;6.73;100.00;99253.44;5030836;28;20445;-78
2024/01/05 04:53:52;;;;;;;5.13;2.38;;;;;;;6.65;100.00;99249.25;5031475;28;20108;-80
2024/01/05 04:56:18;;;;;;;3.22;1.90;;;;;;;6.69;100.00;99236.34;5031403;28;20031;-80
2024/01/05 04:58:43;;;;;;;5.07;2.20;;;;;;;6.66;100.00;99242.91;5031221;28;20037;-80
2024/01/05 05:01:09;;;;;;;6.07;2.20;;;;;;;6.70;100.00;99229.97;5013655;28;20037;-80
2024/01/05 05:03:35;;;;;;;8.27;2.53;;;;;;;6.62;100.00;99235.59;5031329;28;20025;-79
2024/01/05 05:06:01;;;;;;;7.93;2.28;;;;;;;6.66;100.00;99226.16;5031448;28;20013;-80
2024/01/05 05:08:27;;;;;;;6.25;2.75;;;;;;;6.64;100.00;99223.72;5031263;28;20049;-79
2024/01/05 05:10:52;;;;;;;6.97;2.20;;;;;;;6.75;100.00;99228.25;5031263;28;20382;-78
2024/01/05 05:13:18;;;;;;;5.80;2.22;;;;;;;6.74;100.00;99225.84;5031125;28;20095;-79
2024/01/05 05:15:43;;;;;;;4.82;2.50;;;;;;;6.73;100.00;99224.22;5031125;28;20432;-77
2024/01/05 05:18:09;;;;;;;7.53;2.17;;;;;;;6.78;100.00;99221.66;5031034;28;20116;-78
2024/01/05 05:20:34;;;;;;;6.50;3.08;;;;;;;6.71;100.00;99223.63;5031115;28;20033;-78
2024/01/05 05:22:59;;;;;;;3.92;2.10;;;;;;;6.70;100.00;99229.97;5031111;28;20037;-79
2024/01/05 05:25:25;;;;;;;6.80;2.50;;;;;;;6.74;100.00;99223.16;5030915;28;20037;-79
2024/01/05 05:27:50;;;;;;;12.75;2.28;;;;;;;6.77;100.00;99217.41;5031076;28;20034;-79
2024/01/05 05:30:17;;;;;;;6.97;3.88;;;;;;;6.78;100.00;99211.06;5030876;28;20120;-78
2024/01/05 05:32:42;;;;;;;5.25;2.35;;;;;;;6.91;100.00;99221.44;5030853;28;20036;-80
2024/01/05 05:35:07;;;;;;;7.22;2.53;;;;;;;6.90;100.00;99216.34;5030934;28;20029;-79
2024/01/05 05:37:33;;;;;;;6.88;2.55;;;;;;;6.88;100.00;99213.94;5012996;28;20108;-80
2024/01/05 05:39:58;;;;;;;5.63;2.65;;;;;;;6.95;100.00;99211.19;5013159;28;20421;-79
2024/01/05 05:42:23;;;;;;;5.95;2.38;;;;;;;7.04;100.00;99215.09;5030945;28;20433;-79
2024/01/05 05:44:49;;;;;;;9.05;2.65;;;;;;;7.08;100.00;99221.56;5030876;28;20025;-79
2024/01/05 05:47:14;;;;;;;10.02;2.33;;;;;;;7.12;100.00;99226.19;5030867;28;20038;-78
2024/01/05 05:49:39;;;;;;;11.50;2.40;;;;;;;7.17;100.00;99227.34;5030888;28;20040;-79
2024/01/05 05:52:05;;;;;;;5.35;2.15;;;;;;;7.22;100.00;99222.94;5030886;28;20033;-78
2024/01/05 05:54:31;;;;;;;3.92;2.05;;;;;;;7.28;100.00;99210.59;5013143;28;20021;-79
2024/01/05 05:56:57;;;;;;;3.17;1.65;;;;;;;7.32;100.00;99207.25;5030801;28;20022;-78
2024/01/05 05:59:22;;;;;;;4.20;1.70;;;;;;;7.46;100.00;99231.72;5030871;28;20040;-79
2024/01/05 06:01:48;;;;;;;5.32;1.83;;;;;;;7.42;100.00;99204.78;5030738;28;20032;-79
2024/01/05 06:04:13;;;;;;;4.28;2.00;;;;;;;7.43;100.00;99210.91;5033747;28;20408;-77
2024/01/05 06:06:39;;;;;;;1.42;1.33;;;;;;;7.42;100.00;99212.75;5034364;28;20025;-77
2024/01/05 06:09:05;;;;;;;4.95;1.90;;;;;;;7.56;100.00;99192.06;5034396;28;20036;-77
2024/01/05 06:11:31;;;;;;;1.77;1.65;;;;;;;7.54;100.00;99239.34;5034343;28;20029;-77
2024/01/05 06:13:57;;;;;;;1.40;1.30;;;;;;;7.55;100.00;99238.31;5016455;28;20100;-78
2024/01/05 06:16:23;;;;;;;1.20;1.20;;;;;;;7.39;100.00;99205.25;5034233;28;20478;-81
2024/01/05 06:18:49;;;;;;;1.40;1.30;;;;;;;7.39;100.00;99239.81;5034147;28;20033;-77
2024/01/05 06:21:14;;;;;;;1.23;1.23;;;;;;;7.38;100.00;99240.06;5015990;28;20435;-76
2024/01/05 06:23:40;;;;;;;1.15;1.10;;;;;;;7.35;100.00;99244.00;5015749;28;20036;-76
2024/01/05 06:26:05;;;;;;;3.17;1.40;;;;;;;7.36;100.00;99228.84;5033499;28;20077;-76
2024/01/05 06:28:30;;;;;;;1.55;1.00;;;;;;;7.28;100.00;99230.03;5033521;28;20116;-78
2024/01/05 06:30:56;;;;;;;1.27;1.23;;;;;;;7.37;100.00;99225.97;5033437;28;20029;-75
2024/01/05 06:33:21;;;;;;;1.60;1.17;;;;;;;7.35;100.00;99235.22;5033700;28;20054;-77
2024/01/05 06:35:47;;;;;;;1.27;1.20;;;;;;;7.28;100.00;99231.88;5015758;28;20033;-78
2024/01/05 06:38:12;;;;;;;1.25;1.15;;;;;;;7.25;100.00;99240.31;5015588;28;20053;-77
2024/01/05 06:40:38;;;;;;;1.40;1.30;;;;;;;7.24;100.00;99233.38;5033384;28;20100;-77
2024/01/05 06:43:04;;;;;;;1.40;1.15;;;;;;;7.27;100.00;99247.00;5033330;28;20113;-73
2024/01/05 06:45:29;;;;;;;1.30;1.20;;;;;;;7.26;100.00;99234.75;5033287;28;20060;-77
2024/01/05 06:47:54;;;;;;;5.00;1.40;;;;;;;7.28;100.00;99227.38;5033318;28;20533;-74
2024/01/05 06:50:20;;;;;;;1.60;1.50;;;;;;;7.20;100.00;99232.19;5015426;28;20061;-78
2024/01/05 06:52:45;;;;;;;1.92;1.27;;;;;;;7.21;100.00;99247.09;5015459;28;20036;-75
2024/01/05 06:55:11;;;;;;;1.38;1.27;;;;;;;7.26;100.00;99245.41;5015376;28;20490;-76
2024/01/05 06:57:36;;;;;;;2.40;1.50;;;;;;;7.30;100.00;99230.59;5033020;28;20035;-75
2024/01/05 07:00:08;;;;;;;1.70;1.55;;;;;;;7.32;100.00;99209.91;5015377;28;20390;-76
2024/01/05 07:02:34;;;;;;;1.42;1.33;;;;;;;7.26;100.00;99229.44;5033123;28;20056;-76
2024/01/05 07:04:59;;;;;;;1.25;1.20;;;;;;;7.27;100.00;99241.69;5015294;28;20037;-76
2024/01/05 07:07:24;;;;;;;2.42;1.30;;;;;;;7.24;100.00;99228.88;5015175;28;20037;-78
2024/01/05 07:09:50;;;;;;;1.33;1.20;;;;;;;7.19;100.00;99223.41;5015260;28;20124;-76
2024/01/05 07:12:15;;;;;;;1.45;1.27;;;;;;;7.17;100.00;99237.97;5015179;28;20129;-79
2024/01/05 07:14:40;;;;;;;1.50;1.40;;;;;;;7.11;100.00;99243.19;5032493;28;20112;-77
2024/01/05 07:17:06;;;;;;;1.60;1.25;;;;;;;7.15;100.00;99232.91;5032805;28;20045;-77
2024/01/05 07:19:31;;;;;;;1.45;1.33;;;;;;;7.17;100.00;99230.00;5032734;28;20084;-75
2024/01/05 07:21:56;;;;;;;2.15;1.20;;;;;;;7.11;100.00;99213.13;5015130;28;20029;-75
2024/01/05 07:24:22;;;;;;;1.45;1.30;;;;;;;7.14;100.00;99247.22;5032944;28;20513;-75
2024/01/05 07:26:48;;;;;;;1.13;1.02;;;;;;;7.09;100.00;99239.13;5014662;28;20509;-73
2024/01/05 07:29:14;;;;;;;1.40;1.20;;;;;;;7.08;100.00;99234.88;5032609;28;20029;-74
2024/01/05 07:31:39;;;;;;;1.73;1.63;;;;;;;7.01;100.00;99269.53;5032598;28;20458;-77
2024/01/05 07:34:05;;;;;;;2.97;1.42;;;;;;;6.94;100.00;99239.59;5032615;28;20041;-76
2024/01/05 07:36:30;;;;;;;1.88;1.40;;;;;;;6.82;100.00;99246.75;5032788;28;20026;-74
2024/01/05 07:38:58;;;;;;;1.50;1.40;;;;;;;6.63;100.00;99234.56;5032544;28;20029;-74
2024/01/05 07:41:25;;;;;;;3.22;1.40;;;;;;;6.47;100.00;99226.22;5014744;28;20101;-73
2024/01/05 07:43:50;;;;;;;1.60;1.50;;;;;;;6.29;100.00;99242.22;5014654;28;20030;-74
2024/01/05 07:46:15;;;;;;;1.55;1.33;;;;;;;6.15;100.00;99254.88;5014780;28;20029;-74
2024/01/05 07:48:41;;;;;;;2.00;1.30;;;;;;;6.13;100.00;99246.31;5032344;28;20521;-74
2024/01/05 07:51:07;;;;;;;2.03;1.60;;;;;;;6.14;100.00;99276.31;5032393;28;20029;-73
2024/01/05 07:53:32;;;;;;;1.33;1.20;;;;;;;6.13;100.00;99251.63;5032274;28;20103;-72
2024/01/05 07:56:02;;;;;;;1.88;1.38;;;;;;;5.98;100.00;99248.53;5014473;28;20061;-73
2024/01/05 07:58:28;;;;;;;1.40;1.30;;;;;;;5.93;100.00;99245.75;5014225;28;20111;-74
2024/01/05 08:00:53;;;;;;;1.30;1.30;;;;;;;5.80;100.00;99244.06;5031857;28;20466;-72
2024/01/05 08:03:19;;;;;;;1.92;1.70;;;;;;;5.73;100.00;99251.25;5032097;28;20083;-72
2024/01/05 08:05:44;;;;;;;1.40;1.30;;;;;;;5.73;100.00;99239.84;5014394;28;20025;-71
2024/01/05 08:08:10;;;;;;;1.98;1.77;;;;;;;5.69;100.00;99236.81;5032052;28;20034;-72
2024/01/05 08:10:35;;;;;;;1.50;1.40;;;;;;;5.76;100.00;99250.00;5032063;28;20219;-74
2024/01/05 08:13:01;;;;;;;2.35;1.70;;;;;;;5.82;100.00;99244.63;5032110;28;20453;-75
2024/01/05 08:15:27;;;;;;;1.50;1.40;;;;;;;5.81;100.00;99237.72;5031983;28;20064;-74
2024/01/05 08:17:52;;;;;;;1.48;1.42;;;;;;;5.81;100.00;99253.63;5031937;28;20076;-75
2024/01/05 08:20:18;;;;;;;1.80;1.65;;;;;;;5.84;100.00;99247.88;5031983;28;20026;-74
2024/01/05 08:22:43;;;;;;;1.27;1.20;;;;;;;5.86;100.00;99240.50;5032300;28;20029;-73
2024/01/05 08:25:08;;;;;;;1.63;1.40;;;;;;;5.89;100.00;99248.03;5031276;28;20033;-75
2024/01/05 08:27:34;;;;;;;1.50;1.40;;;;;;;5.83;100.00;99242.78;5031733;28;20095;-76
2024/01/05 08:29:59;;;;;;;3.88;1.77;;;;;;;5.69;100.00;99250.06;5031644;28;20036;-73
2024/01/05 08:32:24;;;;;;;1.95;1.42;;;;;;;5.63;100.00;99272.19;5014127;28;20036;-74
2024/01/05 08:34:50;;;;;;;2.58;1.65;;;;;;;5.49;100.00;99282.13;5031651;28;20033;-73
2024/01/05 08:37:15;;;;;;;2.95;1.48;;;;;;;5.42;100.00;99270.75;5031599;28;20084;-72
2024/01/05 08:39:42;;;;;;;2.90;1.85;;;;;;;5.38;100.00;99247.56;5031597;28;20037;-74
2024/01/05 08:42:07;;;;;;;2.70;1.60;;;;;;;5.23;100.00;99250.56;5031734;28;20385;-73
2024/01/05 08:44:32;;;;;;;1.60;1.50;;;;;;;5.19;100.00;99241.41;5031621;28;20033;-73
2024/01/05 08:46:58;;;;;;;2.40;1.83;;;;;;;5.04;100.00;99247.06;5031626;28;20156;-73
2024/01/05 08:49:23;;;;;;;2.50;1.50;;;;;;;4.96;100.00;99260.59;5031567;28;20036;-75
2024/01/05 08:51:49;;;;;;;1.85;1.60;;;;;;;4.88;100.00;99252.91;5031592;28;20021;-76
2024/01/05 08:54:14;;;;;;;2.50;1.90;;;;;;;4.88;100.00;99260.84;5031532;28;20142;-76
2024/01/05 08:56:40;;;;;;;2.08;1.88;;;;;;;4.80;100.00;99254.00;5031605;28;20374;-77
2024/01/05 08:59:05;;;;;;;2.33;1.80;;;;;;;4.92;100.00;99267.34;5031362;28;20474;-75
2024/01/05 09:01:34;;;;;;;3.00;1.90;;;;;;;4.80;100.00;99266.41;5013503;28;20029;-77
2024/01/05 09:03:59;;;;;;;2.92;1.90;;;;;;;4.74;100.00;99259.34;5031688;28;20131;-77
2024/01/05 09:06:25;;;;;;;2.15;2.05;;;;;;;4.58;100.00;99281.84;5013670;28;20116;-76
2024/01/05 09:08:50;;;;;;;1.92;1.52;;;;;;;4.47;100.00;99303.69;5031444;28;20091;-77
2024/01/05 09:11:16;;;;;;;2.40;1.48;;;;;;;4.33;100.00;99282.59;5031157;28;20040;-75
2024/01/05 09:13:41;;;;;;;2.15;1.70;;;;;;;4.22;100.00;99285.91;5031226;28;20099;-75
2024/01/05 09:16:07;;;;;;;1.35;1.30;;;;;;;4.10;100.00;99260.34;5031311;28;20029;-77
2024/01/05 09:18:35;;;;;;;1.52;1.48;;;;;;;4.22;100.00;99279.81;5013447;28;20029;-76
2024/01/05 09:21:02;;;;;;;1.63;1.50;;;;;;;4.11;100.00;99272.56;5013381;28;20039;-76
2024/01/05 09:23:27;;;;;;;1.75;1.65;;;;;;;4.09;100.00;99291.28;5013371;28;20144;-76
2024/01/05 09:25:53;;;;;;;2.35;2.00;;;;;;;4.11;100.00;99293.72;5013372;28;20150;-76
2024/01/05 09:28:18;;;;;;;2.40;2.20;;;;;;;4.15;100.00;99292.25;5031106;28;20409;-76
2024/01/05 09:30:44;;;;;;;2.28;2.03;;;;;;;4.14;100.00;99282.72;5030894;28;20401;-78
2024/01/05 09:33:09;;;;;;;3.05;2.08;;;;;;;4.25;100.00;99276.75;5031251;28;20112;-77
2024/01/05 09:35:35;;;;;;;2.08;1.88;;;;;;;4.30;100.00;99290.13;5013345;28;20116;-76
2024/01/05 09:38:00;;;;;;;2.80;2.15;;;;;;;4.31;100.00;99284.63;5033381;28;20025;-75
2024/01/05 09:40:26;;;;;;;2.92;2.30;;;;;;;4.39;100.00;99282.78;5034484;28;20044;-76
2024/01/05 09:42:51;;;;;;;2.72;2.40;;;;;;;4.42;100.00;99253.25;5034295;28;20021;-77
2024/01/05 09:45:21;;;;;;;3.38;2.00;;;;;;;4.47;100.00;99293.91;5034304;28;20083;-76
2024/01/05 09:47:48;;;;;;;4.28;2.50;;;;;;;4.49;100.00;99305.09;5034458;28;20056;-78
2024/01/05 09:50:16;;;;;;;2.28;1.95;;;;;;;4.49;100.00;99288.41;5016639;28;20034;-77
2024/01/05 09:52:42;;;;;;;3.90;2.40;;;;;;;4.52;100.00;99274.75;5016465;28;20378;-77
2024/01/05 09:55:08;;;;;;;3.78;2.30;;;;;;;4.52;100.00;99309.97;5034276;28;20026;-75
2024/01/05 09:57:34;;;;;;;2.75;2.40;;;;;;;4.56;100.00;99308.53;5034129;28;20405;-75
2024/01/05 10:00:03;;;;;;;2.70;2.38;;;;;;;4.67;100.00;99304.41;5016298;28;20025;-75
2024/01/05 10:02:36;;;;;;;2.40;2.20;;;;;;;4.69;100.00;99301.53;5016299;28;20112;-75
2024/01/05 10:05:01;;;;;;;;;;;;;;;4.75;100.00;99309.44;5034487;28;20057;-76
2024/01/05 10:07:27;;;;;;;2.45;2.25;;;;;;;4.84;100.00;99286.13;5034025;28;20365;-75
2024/01/05 10:09:54;;;;;;;3.17;2.60;;;;;;;4.81;100.00;99300.63;5033961;28;20482;-77
2024/01/05 10:12:20;;;;;;;4.55;2.60;;;;;;;5.02;100.00;99302.09;5033839;28;20112;-79
2024/01/05 10:15:07;;;;;;;2.60;2.40;;;;;;;5.07;100.00;99342.00;5033882;28;20105;-77
2024/01/05 10:17:34;;;;;;;4.07;2.85;;;;;;;5.00;100.00;99309.47;5015530;28;20509;-77
2024/01/05 10:20:19;;;;;;;3.13;2.83;;;;;;;5.10;100.00;99301.81;5016270;28;20037;-74
2024/01/05 10:22:48;;;;;;;3.00;2.50;;;;;;;5.05;100.00;99296.38;5033112;28;20041;-74
2024/01/05 10:25:21;;;;;;;4.65;3.47;;;;;;;5.05;100.00;99306.97;5015887;28;20025;-76
2024/01/05 10:27:49;;;;;;;3.88;2.78;;;;;;;5.16;100.00;99306.25;5016187;28;20041;-76
2024/01/05 10:30:30;;;;;;;2.58;2.38;;;;;;;5.20;100.00;99293.38;5015985;28;20075;-77
2024/01/05 10:33:06;;;;;;;3.50;2.60;;;;;;;5.30;100.00;99285.78;5033599;28;20398;-76
2024/01/05 10:35:34;;;;;;;3.05;2.30;;;;;;;5.39;100.00;99281.00;5016235;28;20555;-76
2024/01/05 10:38:06;;;;;;;3.17;2.55;;;;;;;5.47;100.00;99294.75;5033405;28;20025;-75
2024/01/05 10:40:32;;;;;;;3.33;2.53;;;;;;;5.49;100.00;99300.69;5015725;28;20021;-75
2024/01/05 10:43:26;;;;;;;5.97;2.70;;;;;;;5.56;100.00;99304.06;5015940;28;20051;-76
2024/01/05 10:45:52;;;;;;;3.50;3.17;;;;;;;5.59;100.00;99308.13;5012776;28;20037;-76
2024/01/05 10:48:19;;;;;;;3.88;2.75;;;;;;;5.62;100.00;99312.97;5015171;28;20099;-74
2024/01/05 10:50:46;;;;;;;3.92;2.22;;;;;;;5.68;100.00;99311.28;5033590;28;20482;-77
2024/01/05 10:53:12;;;;;;;2.60;2.40;;;;;;;5.66;100.00;99268.28;5033449;28;20029;-75
2024/01/05 10:55:38;;;;;;;2.70;2.25;;;;;;;5.67;100.00;99315.78;5033216;28;20060;-74
2024/01/05 10:58:09;;;;;;;2.72;2.10;;;;;;;5.78;100.00;99308.94;5015513;28;20025;-76
2024/01/05 11:00:36;;;;;;;2.88;2.03;;;;;;;5.77;100.00;99326.69;5015356;28;20116;-79
2024/01/05 11:03:18;;;;;;;2.47;2.10;;;;;;;5.82;100.00;99318.91;5015357;28;20022;-75
2024/01/05 11:05:45;;;;;;;2.20;1.95;;;;;;;5.86;100.00;99298.03;5033193;28;20116;-75
2024/01/05 11:08:35;;;;;;;4.32;1.90;;;;;;;5.86;100.00;99300.69;5033176;28;20037;-76
2024/01/05 11:11:18;;;;;;;2.40;1.90;;;;;;;5.87;100.00;99326.19;5033199;28;20034;-74
2024/01/05 11:14:04;;;;;;;2.50;2.05;;;;;;;5.93;100.00;99324.53;5015224;28;20021;-74
2024/01/05 11:16:47;;;;;;;2.53;2.20;;;;;;;5.82;100.00;99328.69;5015245;28;20486;-75
2024/01/05 11:19:21;;;;;;;5.72;2.90;;;;;;;5.90;100.00;99304.56;5015082;28;20136;-74
2024/01/05 11:21:54;;;;;;;2.42;2.10;;;;;;;5.81;100.00;99330.53;5015072;28;20076;-74
2024/01/05 11:24:21;;;;;;;4.47;2.10;;;;;;;5.79;100.00;99316.69;5032730;28;20044;-72
2024/01/05 11:26:47;;;;;;;2.50;2.20;;;;;;;5.77;100.00;99316.06;5032718;28;20041;-71
2024/01/05 11:29:13;;;;;;;3.60;2.28;;;;;;;5.82;100.00;99324.19;5032796;28;20029;-74